createdAt,value
2019-01-25T00:01:14.047Z,46.63
2019-01-25T00:03:42.612Z,49.55
2019-01-25T00:06:11.214Z,48.85
2019-01-25T00:08:39.814Z,48.17
2019-01-25T00:11:08.387Z,48.63
2019-01-25T00:13:37.011Z,46.37
2019-01-25T00:16:05.687Z,48.38
2019-01-25T00:18:34.275Z,48.58
2019-01-25T00:21:02.851Z,42.17
2019-01-25T00:23:31.765Z,44.35
2019-01-25T00:26:00.358Z,43.63
2019-01-25T00:28:28.966Z,41.42
2019-01-25T00:30:57.532Z,42.43
2019-01-25T00:33:26.402Z,47.23
2019-01-25T00:35:55.000Z,46.25
2019-01-25T00:38:23.563Z,46.28
2019-01-25T00:40:52.193Z,46.73
2019-01-25T00:43:20.752Z,44.45
2019-01-25T00:45:49.328Z,45.63
2019-01-25T00:48:17.932Z,47.17
2019-01-25T00:50:46.498Z,44.83
2019-01-25T00:53:15.142Z,42.62
2019-01-25T00:55:43.746Z,45.50
2019-01-25T00:58:12.652Z,41.55
2019-01-25T01:00:41.243Z,43.30
2019-01-25T01:03:09.856Z,46.23
2019-01-25T01:05:38.815Z,51.15
2019-01-25T01:08:07.726Z,45.60
2019-01-25T01:10:36.398Z,41.73
2019-01-25T01:13:05.148Z,41.53
2019-01-25T01:15:33.716Z,43.08
2019-01-25T01:18:02.304Z,38.75
2019-01-25T01:20:31.249Z,40.20
2019-01-25T01:22:59.908Z,42.13
2019-01-25T01:25:28.549Z,48.38
2019-01-25T01:27:57.141Z,41.28
2019-01-25T01:30:26.000Z,35.88
2019-01-25T01:32:55.046Z,38.30
2019-01-25T01:35:23.632Z,38.83
2019-01-25T01:37:52.303Z,40.20
2019-01-25T01:40:26.848Z,34.48
2019-01-25T01:42:55.446Z,41.37
2019-01-25T01:45:24.079Z,41.23
2019-01-25T01:47:52.647Z,41.95
2019-01-25T01:50:21.304Z,31.57
2019-01-25T01:52:50.913Z,42.27
2019-01-25T01:55:19.521Z,46.50
2019-01-25T01:58:00.764Z,45.40
2019-01-25T02:00:29.389Z,41.42
2019-01-25T02:02:58.351Z,42.33
2019-01-25T02:05:27.265Z,41.37
2019-01-25T02:07:55.869Z,42.62
2019-01-25T02:10:29.597Z,36.30
2019-01-25T02:12:58.058Z,37.60
2019-01-25T02:15:27.146Z,36.28
2019-01-25T02:17:55.747Z,37.63
2019-01-25T02:20:29.298Z,35.88
2019-01-25T02:22:58.409Z,36.25
2019-01-25T02:25:26.970Z,35.30
2019-01-25T02:27:55.951Z,34.45
2019-01-25T02:30:25.951Z,35.15
2019-01-25T02:32:55.292Z,34.98
2019-01-25T02:35:24.534Z,34.13
2019-01-25T02:37:53.127Z,37.15
2019-01-25T02:40:24.262Z,37.15
2019-01-25T02:42:53.315Z,36.03
2019-01-25T02:45:21.940Z,37.65
2019-01-25T02:47:50.527Z,36.88
2019-01-25T02:50:19.884Z,35.28
2019-01-25T02:52:49.610Z,34.60
2019-01-25T02:55:18.996Z,35.65
2019-01-25T02:57:49.428Z,35.60
2019-01-25T03:00:20.298Z,34.48
2019-01-25T03:02:49.311Z,32.93
2019-01-25T03:05:18.683Z,32.78
2019-01-25T03:07:47.284Z,32.30
2019-01-25T03:10:16.211Z,32.63
2019-01-25T03:12:44.804Z,35.98
2019-01-25T03:15:15.692Z,32.55
2019-01-25T03:17:44.270Z,32.83
2019-01-25T03:20:12.908Z,34.03
2019-01-25T03:22:41.503Z,33.08
2019-01-25T03:25:12.007Z,33.38
2019-01-25T03:27:40.644Z,29.55
2019-01-25T03:30:11.468Z,30.72
2019-01-25T03:32:40.475Z,32.45
2019-01-25T03:35:09.994Z,31.05
2019-01-25T03:37:40.874Z,32.05
2019-01-25T03:40:12.097Z,30.00
2019-01-25T03:42:40.697Z,31.37
2019-01-25T03:45:09.551Z,30.97
2019-01-25T03:47:38.458Z,28.83
2019-01-25T03:50:08.377Z,29.85
2019-01-25T03:52:37.259Z,29.77
2019-01-25T03:55:07.070Z,30.88
2019-01-25T03:57:35.679Z,29.30
2019-01-25T04:00:05.486Z,28.40
2019-01-25T04:02:34.094Z,28.40
2019-01-25T04:05:03.046Z,31.15
2019-01-25T04:07:31.938Z,28.23
2019-01-25T04:10:00.821Z,29.65
2019-01-25T04:12:29.406Z,29.70
2019-01-25T04:14:57.962Z,33.73
2019-01-25T04:17:26.548Z,32.13
2019-01-25T04:19:55.107Z,30.23
2019-01-25T04:22:24.672Z,31.10
2019-01-25T04:24:53.976Z,31.37
2019-01-25T04:27:23.011Z,27.27
2019-01-25T04:29:51.700Z,30.68
2019-01-25T04:32:21.267Z,32.35
2019-01-25T04:34:49.828Z,29.27
2019-01-25T04:37:19.669Z,30.30
2019-01-25T04:39:48.544Z,28.90
2019-01-25T04:42:20.376Z,27.00
2019-01-25T04:44:51.876Z,28.85
2019-01-25T04:47:26.725Z,31.57
2019-01-25T04:49:55.719Z,26.20
2019-01-25T04:52:24.603Z,26.62
2019-01-25T04:54:53.228Z,26.87
2019-01-25T04:57:22.202Z,26.77
2019-01-25T04:59:50.788Z,28.55
2019-01-25T05:02:20.115Z,27.15
2019-01-25T05:04:48.698Z,25.88
2019-01-25T05:07:17.644Z,26.77
2019-01-25T05:09:46.218Z,26.48
2019-01-25T05:12:14.809Z,25.88
2019-01-25T05:14:43.360Z,25.92
2019-01-25T05:17:12.274Z,25.75
2019-01-25T05:19:41.279Z,26.57
2019-01-25T05:22:09.861Z,26.80
2019-01-25T05:24:39.450Z,24.95
2019-01-25T05:27:08.085Z,26.20
2019-01-25T05:29:53.939Z,26.85
2019-01-25T05:32:22.538Z,25.00
2019-01-25T05:34:51.138Z,26.27
2019-01-25T05:37:19.717Z,27.58
2019-01-25T05:39:48.315Z,23.75
2019-01-25T05:42:16.876Z,23.38
2019-01-25T05:44:45.776Z,25.00
2019-01-25T05:47:14.368Z,23.00
2019-01-25T05:49:42.918Z,24.40
2019-01-25T05:52:21.008Z,25.85
2019-01-25T05:54:49.591Z,26.97
2019-01-25T05:57:18.165Z,25.05
2019-01-25T05:59:46.765Z,26.93
2019-01-25T06:02:15.721Z,26.55
2019-01-25T06:04:44.292Z,27.87
2019-01-25T06:07:12.905Z,27.22
2019-01-25T06:09:41.507Z,27.37
2019-01-25T06:12:10.133Z,28.65
2019-01-25T06:14:38.693Z,25.60
2019-01-25T06:17:07.283Z,27.02
2019-01-25T06:19:38.677Z,28.40
2019-01-25T06:22:07.235Z,31.02
2019-01-25T06:24:35.829Z,26.27
2019-01-25T06:27:04.406Z,24.77
2019-01-25T06:29:34.426Z,29.45
2019-01-25T06:32:03.393Z,25.65
2019-01-25T06:34:31.969Z,28.85
2019-01-25T06:37:00.569Z,27.07
2019-01-25T06:39:29.128Z,27.45
2019-01-25T06:41:57.690Z,28.62
2019-01-25T06:44:26.298Z,29.92
2019-01-25T06:46:54.859Z,26.55
2019-01-25T06:49:23.423Z,25.80
2019-01-25T06:51:52.011Z,29.50
2019-01-25T06:54:20.580Z,27.85
2019-01-25T06:56:49.182Z,26.68
2019-01-25T06:59:34.104Z,25.32
2019-01-25T07:02:11.898Z,29.32
2019-01-25T07:04:40.495Z,29.10
2019-01-25T07:07:18.245Z,27.62
2019-01-25T07:09:46.862Z,27.87
2019-01-25T07:12:15.469Z,30.27
2019-01-25T07:14:53.555Z,28.83
2019-01-25T07:17:22.773Z,29.07
2019-01-25T07:19:51.369Z,27.55
2019-01-25T07:22:30.442Z,29.37
2019-01-25T07:24:59.001Z,28.95
2019-01-25T07:27:27.598Z,29.25
2019-01-25T07:29:56.167Z,29.57
2019-01-25T07:32:24.796Z,25.88
2019-01-25T07:34:53.365Z,33.38
2019-01-25T07:37:22.590Z,29.32
2019-01-25T07:39:51.161Z,24.63
2019-01-25T07:42:20.041Z,29.40
2019-01-25T07:44:49.057Z,24.75
2019-01-25T07:47:17.721Z,26.60
2019-01-25T07:49:46.768Z,24.43
2019-01-25T07:52:15.972Z,26.73
2019-01-25T07:54:44.572Z,26.70
2019-01-25T07:57:13.193Z,25.20
2019-01-25T07:59:42.102Z,23.38
2019-01-25T08:02:10.709Z,24.67
2019-01-25T08:04:39.353Z,21.82
2019-01-25T08:07:07.901Z,24.18
2019-01-25T08:09:36.529Z,22.87
2019-01-25T08:12:07.646Z,26.30
2019-01-25T08:14:35.502Z,25.65
2019-01-25T08:17:04.105Z,24.50
2019-01-25T08:19:32.757Z,25.92
2019-01-25T08:22:01.371Z,25.50
2019-01-25T08:24:29.938Z,25.57
2019-01-25T08:26:58.930Z,26.23
2019-01-25T08:29:29.773Z,27.27
2019-01-25T08:32:06.442Z,25.02
2019-01-25T08:34:35.057Z,26.65
2019-01-25T08:37:04.728Z,25.35
2019-01-25T08:39:34.351Z,28.83
2019-01-25T08:42:03.271Z,28.45
2019-01-25T08:44:32.645Z,27.45
2019-01-25T08:47:02.150Z,27.30
2019-01-25T08:49:31.559Z,28.62
2019-01-25T08:52:03.724Z,25.68
2019-01-25T08:54:35.340Z,25.77
2019-01-25T08:57:04.420Z,27.98
2019-01-25T08:59:34.049Z,27.60
2019-01-25T09:02:03.839Z,29.20
2019-01-25T09:04:33.527Z,26.55
2019-01-25T09:07:04.248Z,27.37
2019-01-25T09:09:34.338Z,26.42
2019-01-25T09:12:03.993Z,23.60
2019-01-25T09:14:32.895Z,25.62
2019-01-25T09:17:01.484Z,25.20
2019-01-25T09:19:30.036Z,25.02
2019-01-25T09:21:59.684Z,23.27
2019-01-25T09:24:28.251Z,24.55
2019-01-25T09:26:56.822Z,25.10
2019-01-25T09:29:25.423Z,23.05
2019-01-25T09:31:54.287Z,27.82
2019-01-25T09:34:23.155Z,24.45
2019-01-25T09:36:52.415Z,24.20
2019-01-25T09:39:21.367Z,24.77
2019-01-25T09:41:49.996Z,27.07
2019-01-25T09:44:19.358Z,24.45
2019-01-25T09:46:49.036Z,27.35
2019-01-25T09:49:17.642Z,24.70
2019-01-25T09:51:46.046Z,23.18
2019-01-25T09:54:14.619Z,24.43
2019-01-25T09:56:44.400Z,25.17
2019-01-25T09:59:12.976Z,24.27
2019-01-25T10:01:41.545Z,25.12
2019-01-25T10:04:10.508Z,25.50
2019-01-25T10:06:39.503Z,24.18
2019-01-25T10:09:09.912Z,27.13
2019-01-25T10:11:40.567Z,23.73
2019-01-25T10:14:09.153Z,24.00
2019-01-25T10:16:38.072Z,24.32
2019-01-25T10:19:06.663Z,25.00
2019-01-25T10:21:35.260Z,22.73
2019-01-25T10:24:03.838Z,25.12
2019-01-25T10:26:32.775Z,26.55
2019-01-25T10:29:01.684Z,25.10
2019-01-25T10:31:30.596Z,26.07
2019-01-25T10:33:59.168Z,25.48
2019-01-25T10:36:27.749Z,25.17
2019-01-25T10:38:56.318Z,26.30
2019-01-25T10:41:24.914Z,25.45
2019-01-25T10:43:53.550Z,24.52
2019-01-25T10:46:23.270Z,26.97
2019-01-25T10:48:52.578Z,24.92
2019-01-25T10:51:21.855Z,26.93
2019-01-25T10:53:50.418Z,38.20
2019-01-25T10:56:19.352Z,26.30
2019-01-25T10:58:47.999Z,26.12
2019-01-25T11:01:17.004Z,24.30
2019-01-25T11:03:46.766Z,26.37
2019-01-25T11:06:15.417Z,26.95
2019-01-25T11:08:44.006Z,27.05
2019-01-25T11:11:12.603Z,24.10
2019-01-25T11:13:42.215Z,24.32
2019-01-25T11:16:12.069Z,24.05
2019-01-25T11:18:42.340Z,25.62
2019-01-25T11:21:11.481Z,26.80
2019-01-25T11:23:40.762Z,26.37
2019-01-25T11:26:11.999Z,26.62
2019-01-25T11:28:41.466Z,24.55
2019-01-25T11:31:10.029Z,25.40
2019-01-25T11:33:39.213Z,24.72
2019-01-25T11:36:09.004Z,25.40
2019-01-25T11:38:41.590Z,22.75
2019-01-25T11:41:11.019Z,17.48
2019-01-25T11:43:41.088Z,21.10
2019-01-25T11:46:09.688Z,22.55
2019-01-25T11:48:41.043Z,22.10
2019-01-25T11:51:10.002Z,24.92
2019-01-25T11:53:38.860Z,24.20
2019-01-25T11:56:07.768Z,24.35
2019-01-25T11:58:36.649Z,24.52
2019-01-25T12:01:06.675Z,22.90
2019-01-25T12:03:35.662Z,25.92
2019-01-25T12:06:05.065Z,23.85
2019-01-25T12:08:34.038Z,24.23
2019-01-25T12:11:05.008Z,23.30
2019-01-25T12:13:34.287Z,24.52
2019-01-25T12:16:04.074Z,26.02
2019-01-25T12:18:34.348Z,24.45
2019-01-25T12:21:03.902Z,23.65
2019-01-25T12:23:33.456Z,22.65
2019-01-25T12:26:03.106Z,24.37
2019-01-25T12:28:32.606Z,24.23
2019-01-25T12:31:02.295Z,23.98
2019-01-25T12:33:31.706Z,24.67
2019-01-25T12:36:01.426Z,23.30
2019-01-25T12:38:31.041Z,24.43
2019-01-25T12:41:00.916Z,24.98
2019-01-25T12:43:30.595Z,23.92
2019-01-25T12:46:03.753Z,23.67
2019-01-25T12:51:16.399Z,22.67
2019-01-25T12:53:44.975Z,21.65
2019-01-25T12:56:13.878Z,23.92
2019-01-25T12:58:42.872Z,24.07
2019-01-25T13:01:12.475Z,25.25
2019-01-25T13:03:42.127Z,25.40
2019-01-25T13:06:11.725Z,25.77
2019-01-25T13:08:42.250Z,25.32
2019-01-25T13:11:11.559Z,25.12
2019-01-25T13:13:41.034Z,27.00
2019-01-25T13:16:10.576Z,27.98
2019-01-25T13:18:40.848Z,25.15
2019-01-25T13:21:09.453Z,28.27
2019-01-25T13:23:38.130Z,26.50
2019-01-25T13:26:07.027Z,30.25
2019-01-25T13:28:41.634Z,29.92
2019-01-25T13:31:07.913Z,26.07
2019-01-25T13:33:36.980Z,26.40
2019-01-25T13:36:13.136Z,30.43
2019-01-25T13:38:42.081Z,27.82
2019-01-25T13:41:11.751Z,24.90
2019-01-25T13:43:41.439Z,26.00
2019-01-25T13:46:11.778Z,24.87
2019-01-25T13:48:41.566Z,27.00
2019-01-25T13:51:11.611Z,27.30
2019-01-25T13:53:41.344Z,30.37
2019-01-25T13:56:10.347Z,25.72
2019-01-25T13:58:40.597Z,27.95
2019-01-25T14:01:10.180Z,25.57
2019-01-25T14:03:39.745Z,26.30
2019-01-25T14:06:19.800Z,26.85
2019-01-25T14:08:48.402Z,27.27
2019-01-25T14:11:17.811Z,26.20
2019-01-25T14:13:47.145Z,25.80
2019-01-25T14:16:17.252Z,25.50
2019-01-25T14:18:46.911Z,24.45
2019-01-25T14:21:16.900Z,25.92
2019-01-25T14:23:46.187Z,25.65
2019-01-25T14:26:15.571Z,27.75
2019-01-25T14:28:44.858Z,26.52
2019-01-25T14:31:13.489Z,26.45
2019-01-25T14:33:43.156Z,25.52
2019-01-25T14:36:12.555Z,24.65
2019-01-25T14:38:41.896Z,25.17
2019-01-25T14:41:12.245Z,25.25
2019-01-25T14:43:41.612Z,27.90
2019-01-25T14:46:11.869Z,31.75
2019-01-25T14:48:41.425Z,29.02
2019-01-25T14:51:10.774Z,33.80
2019-01-25T14:53:39.452Z,31.07
2019-01-25T14:56:08.019Z,38.00
2019-01-25T14:58:36.890Z,31.17
2019-01-25T15:01:05.469Z,27.55
2019-01-25T15:03:34.059Z,27.95
2019-01-25T15:06:02.659Z,31.93
2019-01-25T15:08:31.445Z,30.27
2019-01-25T15:11:00.051Z,30.50
2019-01-25T15:13:28.615Z,26.30
2019-01-25T15:15:57.207Z,28.10
2019-01-25T15:18:25.758Z,30.27
2019-01-25T15:20:54.586Z,29.98
2019-01-25T15:23:23.177Z,29.40
2019-01-25T15:25:51.731Z,24.55
2019-01-25T15:28:20.625Z,29.65
2019-01-25T15:30:49.209Z,30.00
2019-01-25T15:33:17.767Z,27.13
2019-01-25T15:35:46.347Z,29.50
2019-01-25T15:38:14.903Z,30.43
2019-01-25T15:40:43.537Z,30.08
2019-01-25T15:43:12.499Z,30.60
2019-01-25T15:45:41.057Z,32.23
2019-01-25T15:48:09.652Z,28.47
2019-01-25T15:50:39.013Z,29.30
2019-01-25T15:53:07.579Z,28.67
2019-01-25T15:55:36.740Z,30.55
2019-01-25T15:58:05.413Z,32.58
2019-01-25T16:00:33.989Z,30.02
2019-01-25T16:03:02.550Z,30.37
2019-01-25T16:05:31.138Z,29.70
2019-01-25T16:07:59.720Z,31.15
2019-01-25T16:10:28.603Z,28.47
2019-01-25T16:12:57.167Z,28.32
2019-01-25T16:15:28.254Z,29.50
2019-01-25T16:17:56.933Z,29.32
2019-01-25T16:20:25.489Z,31.42
2019-01-25T16:22:54.129Z,34.38
2019-01-25T16:25:25.275Z,30.82
2019-01-25T16:27:53.835Z,36.53
2019-01-25T16:30:27.835Z,32.63
2019-01-25T16:32:56.395Z,33.20
2019-01-25T16:35:24.965Z,30.37
2019-01-25T16:37:53.559Z,30.12
2019-01-25T16:40:22.888Z,28.47
2019-01-25T16:42:51.450Z,31.15
2019-01-25T16:45:22.745Z,27.90
2019-01-25T16:47:51.717Z,28.75
2019-01-25T16:50:23.778Z,30.20
2019-01-25T16:52:50.618Z,28.12
2019-01-25T16:55:19.184Z,28.47
2019-01-25T16:57:47.786Z,28.80
2019-01-25T17:00:27.847Z,30.43
2019-01-25T17:02:56.539Z,32.83
2019-01-25T17:05:25.139Z,32.85
2019-01-25T17:07:53.730Z,33.60
2019-01-25T17:10:22.404Z,36.55
2019-01-25T17:12:50.989Z,32.73
2019-01-25T17:15:19.563Z,26.02
2019-01-25T17:17:48.155Z,28.57
2019-01-25T17:20:21.244Z,26.27
2019-01-25T17:22:47.774Z,26.27
2019-01-25T17:25:16.403Z,29.07
2019-01-25T17:27:45.098Z,26.62
2019-01-25T17:30:22.325Z,28.57
2019-01-25T17:32:51.254Z,31.35
2019-01-25T17:35:19.877Z,28.30
2019-01-25T17:37:48.831Z,32.42
2019-01-25T17:40:18.719Z,30.80
2019-01-25T17:42:47.399Z,29.15
2019-01-25T17:45:17.650Z,32.60
2019-01-25T17:47:47.746Z,30.30
2019-01-25T17:50:19.391Z,31.77
2019-01-25T17:52:48.360Z,29.72
2019-01-25T17:55:17.707Z,30.60
2019-01-25T17:57:46.262Z,31.68
2019-01-25T18:00:24.960Z,38.98
2019-01-25T18:02:54.275Z,35.75
2019-01-25T18:05:23.601Z,29.30
2019-01-25T18:07:52.898Z,31.25
2019-01-25T18:10:22.861Z,30.65
2019-01-25T18:12:51.737Z,26.42
2019-01-25T18:15:20.308Z,29.57
2019-01-25T18:17:48.891Z,27.00
2019-01-25T18:20:17.576Z,27.67
2019-01-25T18:22:46.136Z,27.90
2019-01-25T18:25:18.323Z,27.15
2019-01-25T18:27:50.605Z,31.43
2019-01-25T18:30:38.356Z,32.00
2019-01-25T18:33:06.928Z,28.80
2019-01-25T18:35:35.477Z,29.75
2019-01-25T18:38:04.129Z,30.37
2019-01-25T18:40:32.760Z,31.97
2019-01-25T18:43:02.105Z,30.70
2019-01-25T18:45:31.453Z,32.40
2019-01-25T18:48:01.269Z,32.48
2019-01-25T18:50:31.005Z,32.45
2019-01-25T18:53:00.229Z,28.52
2019-01-25T18:55:29.848Z,32.42
2019-01-25T18:58:00.706Z,31.25
2019-01-25T19:00:30.994Z,31.85
2019-01-25T19:03:00.297Z,28.75
2019-01-25T19:05:29.851Z,31.57
2019-01-25T19:08:01.020Z,33.35
2019-01-25T19:10:30.392Z,33.23
2019-01-25T19:13:01.008Z,29.57
2019-01-25T19:15:31.109Z,31.90
2019-01-25T19:18:00.626Z,32.53
2019-01-25T19:20:29.231Z,32.63
2019-01-25T19:22:57.803Z,35.43
2019-01-25T19:25:26.743Z,31.42
2019-01-25T19:27:55.326Z,32.75
2019-01-25T19:30:29.802Z,34.38
2019-01-25T19:32:58.383Z,33.55
2019-01-25T19:35:26.939Z,34.38
2019-01-25T19:37:55.489Z,33.18
2019-01-25T19:40:25.621Z,30.12
2019-01-25T19:42:54.166Z,32.88
2019-01-25T19:45:23.058Z,31.27
2019-01-25T19:47:51.943Z,31.42
2019-01-25T19:50:20.533Z,31.82
2019-01-25T19:52:49.969Z,32.13
2019-01-25T19:55:21.075Z,33.25
2019-01-25T19:57:50.118Z,32.93
2019-01-25T20:00:28.471Z,30.88
2019-01-25T20:02:57.948Z,33.45
2019-01-25T20:05:29.492Z,34.58
2019-01-25T20:07:59.575Z,37.03
2019-01-25T20:10:28.648Z,31.12
2019-01-25T20:12:58.322Z,33.67
2019-01-25T20:15:28.332Z,29.65
2019-01-25T20:17:57.820Z,35.15
2019-01-25T20:20:34.097Z,31.07
2019-01-25T20:23:03.422Z,32.70
2019-01-25T20:25:31.989Z,30.50
2019-01-25T20:28:00.848Z,34.00
2019-01-25T20:30:31.555Z,33.95
2019-01-25T20:33:02.040Z,38.70
2019-01-25T20:35:33.826Z,40.40
2019-01-25T20:38:03.082Z,40.73
2019-01-25T20:40:31.713Z,42.53
2019-01-25T20:43:00.301Z,37.13
2019-01-25T20:45:31.418Z,35.65
2019-01-25T20:47:59.961Z,36.23
2019-01-25T20:50:30.062Z,37.10
2019-01-25T20:52:58.623Z,36.23
2019-01-25T20:55:27.201Z,38.53
2019-01-25T20:57:57.160Z,39.05
2019-01-25T21:00:28.069Z,35.88
2019-01-25T21:02:56.673Z,37.95
2019-01-25T21:05:25.252Z,34.38
2019-01-25T21:07:53.807Z,32.55
2019-01-25T21:10:23.241Z,34.13
2019-01-25T21:12:51.800Z,34.58
2019-01-25T21:15:21.960Z,33.02
2019-01-25T21:17:50.525Z,31.95
2019-01-25T21:20:24.844Z,33.88
2019-01-25T21:22:53.401Z,31.37
2019-01-25T21:25:21.978Z,31.85
2019-01-25T21:27:50.533Z,31.73
2019-01-25T21:30:21.512Z,35.88
2019-01-25T21:32:50.090Z,33.05
2019-01-25T21:35:18.667Z,32.78
2019-01-25T21:37:47.216Z,33.35
2019-01-25T21:40:18.352Z,29.27
2019-01-25T21:42:46.914Z,28.52
2019-01-25T21:45:18.147Z,25.88
2019-01-25T21:47:47.864Z,30.02
2019-01-25T21:50:19.574Z,29.95
2019-01-25T21:52:48.528Z,29.15
2019-01-25T21:55:17.619Z,27.67
2019-01-25T21:57:47.531Z,29.75
2019-01-25T22:00:22.178Z,27.52
2019-01-25T22:02:51.595Z,30.50
2019-01-25T22:05:21.034Z,25.75
2019-01-25T22:07:50.852Z,28.25
2019-01-25T22:10:22.822Z,27.67
2019-01-25T22:12:51.504Z,26.77
2019-01-25T22:15:20.904Z,25.62
2019-01-25T22:17:50.709Z,25.75
2019-01-25T22:20:22.334Z,27.02
2019-01-25T22:22:51.974Z,24.63
2019-01-25T22:25:21.842Z,25.77
2019-01-25T22:27:52.906Z,24.35
2019-01-25T22:30:23.682Z,21.60
2019-01-25T22:32:53.566Z,20.90
2019-01-25T22:35:23.239Z,21.95
2019-01-25T22:37:53.252Z,19.73
2019-01-25T22:40:25.053Z,20.43
2019-01-25T22:42:56.141Z,21.20
2019-01-25T22:45:27.313Z,20.82
2019-01-25T22:47:58.201Z,22.62
2019-01-25T22:50:29.452Z,20.15
2019-01-25T22:52:59.854Z,23.15
2019-01-25T22:55:29.824Z,16.17
2019-01-25T22:57:59.290Z,19.40
2019-01-25T23:01:08.388Z,18.67
2019-01-25T23:04:10.964Z,20.60
2019-01-25T23:06:43.421Z,18.95
2019-01-25T23:09:27.726Z,16.90
2019-01-25T23:11:57.174Z,19.50
2019-01-25T23:14:26.794Z,20.15
2019-01-25T23:16:55.401Z,18.20
2019-01-25T23:19:25.575Z,19.20
2019-01-25T23:21:55.864Z,18.45
2019-01-25T23:24:25.867Z,19.05
2019-01-25T23:26:54.896Z,20.62
2019-01-25T23:29:24.196Z,18.85
2019-01-25T23:31:54.478Z,16.85
2019-01-25T23:34:23.859Z,18.48
2019-01-25T23:36:53.571Z,17.05
2019-01-25T23:39:22.819Z,18.05
2019-01-25T23:41:52.071Z,17.62
2019-01-25T23:44:21.993Z,19.07
2019-01-25T23:46:50.776Z,18.73
2019-01-25T23:49:20.456Z,18.27
2019-01-25T23:51:49.115Z,17.73
2019-01-25T23:54:18.781Z,17.70
2019-01-25T23:56:48.562Z,16.75
2019-01-25T23:59:18.302Z,17.12
